Time;durP1;ratioP1;P1;durP2;ratioP2;P2;SDS_P1;SDS_P2;PMS_P1;PMS_P2;Temp;Humidity;BMP_temperature;BMP_pressure;BME280_temperature;BME280_humidity;BME280_pressure;Samples;Min_cycle;Max_cycle;Signal;HPM_P1;HPM_P2
2022/08/22 00:02:00;;;;;;;7.32;4.63;;;;;;;;;;5056475;28;20021;-70
2022/08/22 00:04:28;;;;;;;5.38;4.35;;;;;;;;;;5038442;28;20036;-70
2022/08/22 00:06:54;;;;;;;6.25;4.65;;;;;;;;;;5038203;28;20375;-70
2022/08/22 00:09:36;;;;;;;6.43;4.40;;;;;;;;;;5056385;28;20033;-69
2022/08/22 00:12:02;;;;;;;8.20;5.55;;;;;;;;;;5021828;28;20405;-70
2022/08/22 00:14:35;;;;;;;6.85;5.38;;;;;;;;;;5056249;28;20095;-70
2022/08/22 00:17:19;;;;;;;6.40;5.03;;;;;;;;;;5037985;28;20029;-70
2022/08/22 00:19:51;;;;;;;7.07;5.45;;;;;;;;;;5056422;28;20025;-71
2022/08/22 00:22:21;;;;;;;9.02;5.15;;;;;;;;;;5056340;28;20448;-71
2022/08/22 00:24:46;;;;;;;;;;;;;;;;;;5056205;28;20112;-71
2022/08/22 00:27:14;;;;;;;7.18;4.97;;;;;;;;;;5056030;28;19955;-71
2022/08/22 00:29:51;;;;;;;7.18;4.68;;;;;;;;;;5055108;28;20514;-70
2022/08/22 00:32:22;;;;;;;8.32;4.78;;;;;;;;;;5055643;28;20021;-70
2022/08/22 00:35:00;;;;;;;6.97;4.28;;;;;;;;;;5055894;28;20060;-70
2022/08/22 00:37:25;;;;;;;6.68;5.10;;;;;;;;;;5055583;28;20032;-72
2022/08/22 00:39:55;;;;;;;4.85;4.28;;;;;;;;;;5056078;28;20113;-71
2022/08/22 00:42:28;;;;;;;6.63;4.47;;;;;;;;;;5021558;28;20083;-71
2022/08/22 00:45:07;;;;;;;4.95;4.55;;;;;;;;;;5055869;28;20025;-71
2022/08/22 00:47:51;;;;;;;6.38;4.75;;;;;;;;;;5055604;28;20056;-71
2022/08/22 00:50:22;;;;;;;6.13;5.32;;;;;;;;;;5055836;28;20025;-71
2022/08/22 00:53:07;;;;;;;6.60;4.95;;;;;;;;;;5055094;28;20049;-71
2022/08/22 00:55:45;;;;;;;6.10;5.13;;;;;;;;;;5037466;28;20029;-71
2022/08/22 00:58:14;;;;;;;6.15;5.13;;;;;;;;;;5055403;28;20380;-71
2022/08/22 01:00:46;;;;;;;6.15;4.93;;;;;;;;;;5037576;28;20025;-71
2022/08/22 01:03:27;;;;;;;6.25;5.28;;;;;;;;;;5055002;28;20038;-71
2022/08/22 01:06:11;;;;;;;8.95;5.18;;;;;;;;;;5055710;28;20029;-71
2022/08/22 01:08:37;;;;;;;7.22;5.55;;;;;;;;;;5055230;28;20028;-71
2022/08/22 01:11:05;;;;;;;7.18;6.03;;;;;;;;;;5054855;28;20028;-71
2022/08/22 01:13:49;;;;;;;9.48;6.45;;;;;;;;;;5036970;28;20029;-71
2022/08/22 01:16:33;;;;;;;6.88;6.13;;;;;;;;;;5020377;28;20029;-71
2022/08/22 01:19:05;;;;;;;7.53;5.47;;;;;;;;;;5037199;28;20025;-71
2022/08/22 01:21:33;;;;;;;6.80;6.05;;;;;;;;;;5054979;28;20192;-71
2022/08/22 01:24:21;;;;;;;9.75;5.55;;;;;;;;;;5054856;28;20021;-71
2022/08/22 01:26:46;;;;;;;9.63;6.57;;;;;;;;;;5054800;28;20029;-71
2022/08/22 01:29:11;;;;;;;7.28;6.28;;;;;;;;;;5054836;28;20027;-71
2022/08/22 01:32:03;;;;;;;8.23;6.40;;;;;;;;;;5054804;28;20032;-71
2022/08/22 01:34:41;;;;;;;7.20;5.85;;;;;;;;;;5049368;28;20041;-71
2022/08/22 01:37:17;;;;;;;6.90;5.80;;;;;;;;;;5036517;28;20091;-71
2022/08/22 01:39:58;;;;;;;7.40;6.40;;;;;;;;;;5036336;28;20033;-71
2022/08/22 01:42:44;;;;;;;7.75;5.85;;;;;;;;;;5054966;28;20120;-71
2022/08/22 01:45:12;;;;;;;6.80;6.10;;;;;;;;;;5054450;28;20388;-71
2022/08/22 01:47:44;;;;;;;7.03;5.97;;;;;;;;;;5054471;28;20035;-71
2022/08/22 01:50:28;;;;;;;8.60;6.28;;;;;;;;;;5054046;28;20070;-71
2022/08/22 01:53:04;;;;;;;8.30;6.25;;;;;;;;;;5020584;28;20050;-71
2022/08/22 01:55:35;;;;;;;6.72;5.88;;;;;;;;;;5034428;28;20117;-70
2022/08/22 01:58:03;;;;;;;10.02;6.57;;;;;;;;;;5034438;28;20474;-70
2022/08/22 02:00:32;;;;;;;9.23;7.07;;;;;;;;;;5034292;28;20022;-70
2022/08/22 02:03:06;;;;;;;8.95;6.90;;;;;;;;;;5034410;28;20033;-70
2022/08/22 02:05:36;;;;;;;7.55;6.60;;;;;;;;;;5016634;28;20033;-70
2022/08/22 02:08:01;;;;;;;10.20;7.10;;;;;;;;;;5034616;28;20040;-70
2022/08/22 02:10:47;;;;;;;9.90;7.45;;;;;;;;;;5016660;28;20033;-70
2022/08/22 02:13:12;;;;;;;9.27;7.25;;;;;;;;;;5034187;28;20037;-70
2022/08/22 02:15:37;;;;;;;9.15;6.70;;;;;;;;;;5034001;28;20467;-72
2022/08/22 02:18:05;;;;;;;10.60;7.15;;;;;;;;;;5034423;28;20029;-73
2022/08/22 02:20:31;;;;;;;10.50;7.32;;;;;;;;;;5034484;28;20498;-73
2022/08/22 02:23:16;;;;;;;9.07;8.10;;;;;;;;;;5034065;28;20034;-72
2022/08/22 02:25:48;;;;;;;28.95;13.23;;;;;;;;;;5034001;28;20049;-72
2022/08/22 02:28:22;;;;;;;21.63;11.32;;;;;;;;;;5016745;28;20034;-72
2022/08/22 02:30:53;;;;;;;16.83;8.98;;;;;;;;;;5034164;28;20046;-73
2022/08/22 02:33:29;;;;;;;9.82;8.02;;;;;;;;;;5034230;28;20057;-73
2022/08/22 02:35:58;;;;;;;7.68;6.50;;;;;;;;;;5016491;28;20029;-73
2022/08/22 02:38:32;;;;;;;9.90;7.18;;;;;;;;;;5033851;28;20022;-71
2022/08/22 02:41:06;;;;;;;9.32;6.57;;;;;;;;;;5016300;28;20112;-71
2022/08/22 02:43:47;;;;;;;12.05;7.80;;;;;;;;;;5000240;28;20079;-71
2022/08/22 02:46:12;;;;;;;11.95;7.60;;;;;;;;;;5033752;28;20029;-70
2022/08/22 02:48:46;;;;;;;11.13;8.10;;;;;;;;;;5033504;28;20384;-70
2022/08/22 02:51:25;;;;;;;11.65;8.07;;;;;;;;;;5036093;28;20033;-71
2022/08/22 02:54:06;;;;;;;10.68;9.60;;;;;;;;;;5057993;28;20025;-71
2022/08/22 02:56:36;;;;;;;11.75;8.35;;;;;;;;;;5057591;28;20126;-71
2022/08/22 02:59:11;;;;;;;10.75;9.68;;;;;;;;;;5040270;28;20056;-71
2022/08/22 03:01:41;;;;;;;9.38;8.32;;;;;;;;;;5057712;28;20108;-71
2022/08/22 03:04:15;;;;;;;8.38;7.50;;;;;;;;;;5039866;28;20086;-71
2022/08/22 03:06:42;;;;;;;10.55;8.82;;;;;;;;;;5022877;28;20033;-71
2022/08/22 03:09:14;;;;;;;10.27;9.30;;;;;;;;;;5057310;28;20040;-71
2022/08/22 03:11:44;;;;;;;9.02;8.15;;;;;;;;;;5039920;28;20086;-71
2022/08/22 03:14:28;;;;;;;10.15;9.18;;;;;;;;;;5057354;28;20086;-71
2022/08/22 03:17:04;;;;;;;7.72;7.15;;;;;;;;;;5057223;28;20455;-71
2022/08/22 03:19:42;;;;;;;10.80;9.55;;;;;;;;;;5057318;28;20071;-71
2022/08/22 03:22:10;;;;;;;9.63;8.73;;;;;;;;;;5057466;28;20033;-69
2022/08/22 03:24:43;;;;;;;10.40;9.32;;;;;;;;;;5057549;28;20013;-70
2022/08/22 03:27:22;;;;;;;9.43;8.63;;;;;;;;;;5057117;28;20025;-70
2022/08/22 03:30:00;;;;;;;9.45;8.48;;;;;;;;;;5038806;28;20032;-71
2022/08/22 03:32:44;;;;;;;10.10;9.00;;;;;;;;;;5057212;28;20115;-71
2022/08/22 03:35:20;;;;;;;10.43;9.43;;;;;;;;;;5038660;28;20070;-71
2022/08/22 03:37:47;;;;;;;10.25;9.27;;;;;;;;;;5056742;28;20017;-71
2022/08/22 03:40:20;;;;;;;9.63;8.75;;;;;;;;;;5057301;28;20018;-71
2022/08/22 03:42:48;;;;;;;10.23;8.52;;;;;;;;;;5057118;28;20029;-75
2022/08/22 03:45:24;;;;;;;13.70;10.73;;;;;;;;;;5057056;28;20040;-70
2022/08/22 03:48:08;;;;;;;10.25;9.35;;;;;;;;;;5056965;28;20434;-70
2022/08/22 03:50:52;;;;;;;11.43;10.32;;;;;;;;;;5039367;28;20025;-70
2022/08/22 03:53:33;;;;;;;10.15;8.85;;;;;;;;;;5056278;28;20047;-70
2022/08/22 03:56:18;;;;;;;10.70;9.70;;;;;;;;;;5038802;28;20029;-70
2022/08/22 03:59:03;;;;;;;11.75;10.60;;;;;;;;;;5056480;28;20360;-71
2022/08/22 04:01:38;;;;;;;12.95;11.23;;;;;;;;;;5056742;28;20032;-71
2022/08/22 04:04:03;;;;;;;12.15;10.95;;;;;;;;;;5038530;28;20035;-71
2022/08/22 04:06:48;;;;;;;11.57;10.38;;;;;;;;;;5056106;28;20383;-71
2022/08/22 04:09:25;;;;;;;11.15;10.00;;;;;;;;;;5056636;28;20035;-71
2022/08/22 04:12:01;;;;;;;12.68;10.93;;;;;;;;;;5056614;28;20033;-71
2022/08/22 04:14:34;;;;;;;11.23;10.13;;;;;;;;;;5056159;28;20098;-71
2022/08/22 04:17:19;;;;;;;12.02;10.82;;;;;;;;;;5056084;28;20033;-70
2022/08/22 04:19:51;;;;;;;10.93;9.90;;;;;;;;;;5055607;28;20171;-70
2022/08/22 04:22:32;;;;;;;11.35;9.95;;;;;;;;;;5055275;28;20028;-70
2022/08/22 04:25:18;;;;;;;12.27;11.05;;;;;;;;;;5055389;28;20025;-70
2022/08/22 04:28:07;;;;;;;13.00;11.57;;;;;;;;;;5055656;28;20032;-70
2022/08/22 04:30:32;;;;;;;11.73;10.68;;;;;;;;;;5042163;28;20041;-70
2022/08/22 04:33:21;;;;;;;13.13;11.75;;;;;;;;;;5037667;28;20025;-70
2022/08/22 04:36:01;;;;;;;18.20;12.07;;;;;;;;;;5055182;28;20029;-70
2022/08/22 04:38:36;;;;;;;12.33;10.20;;;;;;;;;;5054680;28;20639;-70
2022/08/22 04:41:09;;;;;;;12.23;10.80;;;;;;;;;;5054334;28;20641;-70
2022/08/22 04:43:40;;;;;;;11.30;10.27;;;;;;;;;;5054265;28;20017;-70
2022/08/22 04:46:12;;;;;;;14.05;12.73;;;;;;;;;;5054224;28;20025;-70
2022/08/22 04:48:38;;;;;;;17.95;12.98;;;;;;;;;;5054091;28;20028;-70
2022/08/22 04:51:10;;;;;;;12.60;11.40;;;;;;;;;;5054033;28;20359;-70
2022/08/22 04:53:39;;;;;;;12.52;11.10;;;;;;;;;;5053990;28;20032;-70
2022/08/22 04:56:07;;;;;;;13.98;12.57;;;;;;;;;;5035963;28;20029;-70
2022/08/22 04:58:45;;;;;;;15.65;14.05;;;;;;;;;;5054380;28;20040;-70
2022/08/22 05:01:10;;;;;;;18.25;13.15;;;;;;;;;;5055229;28;20162;-70
2022/08/22 05:03:48;;;;;;;15.25;12.88;;;;;;;;;;5054523;28;20468;-70
2022/08/22 05:06:14;;;;;;;12.07;10.77;;;;;;;;;;5054573;28;20041;-70
2022/08/22 05:08:41;;;;;;;15.32;12.95;;;;;;;;;;5054880;28;20017;-70
2022/08/22 05:11:08;;;;;;;24.60;15.65;;;;;;;;;;5054824;28;20078;-70
2022/08/22 05:13:43;;;;;;;20.25;14.63;;;;;;;;;;5054622;28;20450;-70
2022/08/22 05:16:11;;;;;;;19.27;15.20;;;;;;;;;;5054363;28;20032;-70
2022/08/22 05:18:45;;;;;;;27.92;17.52;;;;;;;;;;5054631;28;20105;-70
2022/08/22 05:21:11;;;;;;;19.98;15.55;;;;;;;;;;5054658;28;20061;-70
2022/08/22 05:24:03;;;;;;;34.15;20.02;;;;;;;;;;5054503;28;20021;-71
2022/08/22 05:26:32;;;;;;;38.35;19.48;;;;;;;;;;5049023;28;20037;-71
2022/08/22 05:29:01;;;;;;;37.73;20.07;;;;;;;;;;5054565;28;20020;-70
2022/08/22 05:31:29;;;;;;;25.95;17.15;;;;;;;;;;5036443;28;20391;-70
2022/08/22 05:33:58;;;;;;;47.00;23.67;;;;;;;;;;5053638;28;20049;-70
2022/08/22 05:36:27;;;;;;;27.17;17.52;;;;;;;;;;5054201;28;20033;-71
2022/08/22 05:38:59;;;;;;;15.43;13.50;;;;;;;;;;5053930;28;20060;-71
2022/08/22 05:41:25;;;;;;;14.57;13.05;;;;;;;;;;5054244;28;20522;-71
2022/08/22 05:43:52;;;;;;;13.00;11.57;;;;;;;;;;5053961;28;20049;-71
2022/08/22 05:46:35;;;;;;;13.23;11.93;;;;;;;;;;5054156;28;20029;-71
2022/08/22 05:49:02;;;;;;;16.70;14.95;;;;;;;;;;5053376;28;20076;-70
2022/08/22 05:51:37;;;;;;;28.42;19.27;;;;;;;;;;5032375;28;20447;-70
2022/08/22 05:54:13;;;;;;;27.92;19.33;;;;;;;;;;5034166;28;20472;-70
2022/08/22 05:56:41;;;;;;;22.48;16.73;;;;;;;;;;5033666;28;20034;-70
2022/08/22 05:59:20;;;;;;;19.73;15.63;;;;;;;;;;5016510;28;20022;-70
2022/08/22 06:01:54;;;;;;;18.15;12.43;;;;;;;;;;5033904;28;20403;-70
2022/08/22 06:04:22;;;;;;;19.75;15.68;;;;;;;;;;5033979;28;20033;-70
2022/08/22 06:07:11;;;;;;;27.35;19.52;;;;;;;;;;5033898;28;20033;-70
2022/08/22 06:09:40;;;;;;;16.90;13.90;;;;;;;;;;5023401;28;20092;-70
2022/08/22 06:12:11;;;;;;;27.95;20.55;;;;;;;;;;5033680;28;20017;-69
2022/08/22 06:14:37;;;;;;;16.20;14.10;;;;;;;;;;5033426;28;20490;-70
2022/08/22 06:17:02;;;;;;;15.00;13.45;;;;;;;;;;5033665;28;20026;-70
2022/08/22 06:19:28;;;;;;;16.10;14.40;;;;;;;;;;5033441;28;20017;-69
2022/08/22 06:21:55;;;;;;;14.73;13.10;;;;;;;;;;5032653;28;20451;-69
2022/08/22 06:24:25;;;;;;;15.20;13.60;;;;;;;;;;5014960;28;20026;-69
2022/08/22 06:26:51;;;;;;;16.02;13.90;;;;;;;;;;5014011;28;20041;-69
2022/08/22 06:29:26;;;;;;;13.50;12.20;;;;;;;;;;5032696;28;20024;-69
2022/08/22 06:31:51;;;;;;;15.02;13.05;;;;;;;;;;5032680;28;20130;-69
2022/08/22 06:34:22;;;;;;;15.15;13.55;;;;;;;;;;5032577;28;20052;-69
2022/08/22 06:36:49;;;;;;;14.02;12.63;;;;;;;;;;5032440;28;20041;-69
2022/08/22 06:39:23;;;;;;;21.40;16.60;;;;;;;;;;5032511;28;20514;-69
2022/08/22 06:41:49;;;;;;;15.65;13.65;;;;;;;;;;5032465;28;20040;-69
2022/08/22 06:44:16;;;;;;;16.00;13.10;;;;;;;;;;5014754;28;20402;-69
2022/08/22 06:46:43;;;;;;;15.23;13.13;;;;;;;;;;5032460;28;20061;-69
2022/08/22 06:49:08;;;;;;;31.52;22.92;;;;;;;;;;5032477;28;20468;-69
2022/08/22 06:51:35;;;;;;;25.25;20.17;;;;;;;;;;5036709;28;20055;-69
2022/08/22 06:54:02;;;;;;;23.50;18.67;;;;;;;;;;5052268;28;20021;-69
2022/08/22 06:56:32;;;;;;;35.58;23.15;;;;;;;;;;5034484;28;20033;-69
2022/08/22 06:58:59;;;;;;;17.05;13.80;;;;;;;;;;5052231;28;20387;-69
2022/08/22 07:01:33;;;;;;;22.17;16.73;;;;;;;;;;5034282;28;20401;-69
2022/08/22 07:04:04;;;;;;;22.23;14.88;;;;;;;;;;5052156;28;20479;-69
2022/08/22 07:06:37;;;;;;;21.67;16.35;;;;;;;;;;5052772;28;20376;-70
2022/08/22 07:09:04;;;;;;;21.38;15.65;;;;;;;;;;5053105;28;20451;-70
2022/08/22 07:11:36;;;;;;;23.30;17.33;;;;;;;;;;5053128;28;20025;-70
2022/08/22 07:14:04;;;;;;;44.78;24.23;;;;;;;;;;5052649;28;20029;-70
2022/08/22 07:16:34;;;;;;;32.75;20.73;;;;;;;;;;5052686;28;20017;-69
2022/08/22 07:19:00;;;;;;;17.73;14.73;;;;;;;;;;5052107;28;20036;-69
2022/08/22 07:21:27;;;;;;;36.30;22.60;;;;;;;;;;5051963;28;20383;-70
2022/08/22 07:23:53;;;;;;;35.33;24.00;;;;;;;;;;5051964;28;20021;-70
2022/08/22 07:26:27;;;;;;;45.45;29.40;;;;;;;;;;5051917;28;20521;-69
2022/08/22 07:29:06;;;;;;;28.63;21.92;;;;;;;;;;5051926;28;20033;-69
2022/08/22 07:31:52;;;;;;;21.88;17.92;;;;;;;;;;5034055;28;20025;-69
2022/08/22 07:34:18;;;;;;;20.13;17.55;;;;;;;;;;5051948;28;20040;-69
2022/08/22 07:37:03;;;;;;;20.25;17.05;;;;;;;;;;5051859;28;20025;-69
2022/08/22 07:39:35;;;;;;;20.15;17.30;;;;;;;;;;5055615;28;20021;-70
2022/08/22 07:42:00;;;;;;;19.58;16.25;;;;;;;;;;5055597;28;20021;-69
2022/08/22 07:44:34;;;;;;;19.23;16.15;;;;;;;;;;5055495;28;20020;-69
2022/08/22 07:47:02;;;;;;;18.50;16.33;;;;;;;;;;5055406;28;20398;-69
2022/08/22 07:49:37;;;;;;;17.42;14.90;;;;;;;;;;5055461;28;20100;-69
2022/08/22 07:52:12;;;;;;;19.10;15.63;;;;;;;;;;5055134;28;20515;-69
2022/08/22 07:54:38;;;;;;;18.30;15.13;;;;;;;;;;5055409;28;20041;-69
2022/08/22 07:57:10;;;;;;;16.02;14.32;;;;;;;;;;5055252;28;20033;-70
2022/08/22 07:59:36;;;;;;;16.55;14.77;;;;;;;;;;5037515;28;20029;-70
2022/08/22 08:02:05;;;;;;;17.13;15.20;;;;;;;;;;5055240;28;20061;-70
2022/08/22 08:04:32;;;;;;;16.65;14.95;;;;;;;;;;5037456;28;20021;-70
2022/08/22 08:06:59;;;;;;;17.73;15.90;;;;;;;;;;5055172;28;20024;-70
2022/08/22 08:09:31;;;;;;;17.02;14.93;;;;;;;;;;5055054;28;20119;-70
2022/08/22 08:11:58;;;;;;;15.23;13.68;;;;;;;;;;5055156;28;20029;-70
2022/08/22 08:14:24;;;;;;;18.45;15.73;;;;;;;;;;5055375;28;20031;-70
2022/08/22 08:17:12;;;;;;;18.42;16.52;;;;;;;;;;5055181;28;20091;-70
2022/08/22 08:19:39;;;;;;;19.80;16.02;;;;;;;;;;5054876;28;20075;-70
2022/08/22 08:22:04;;;;;;;20.70;15.43;;;;;;;;;;5055256;28;20017;-70
2022/08/22 08:24:32;;;;;;;18.63;15.65;;;;;;;;;;5055797;28;20031;-70
2022/08/22 08:29:55;;;;;;;23.25;16.65;;;;;;;;;;5055971;28;20039;-69
2022/08/22 08:32:22;;;;;;;25.20;18.02;;;;;;;;;;5037826;28;20040;-69
2022/08/22 08:34:48;;;;;;;21.50;16.70;;;;;;;;;;5055932;28;20071;-69
2022/08/22 08:37:19;;;;;;;25.15;19.38;;;;;;;;;;5055470;28;20036;-69
2022/08/22 08:39:54;;;;;;;32.05;24.50;;;;;;;;;;5055819;28;20360;-69
2022/08/22 08:43:26;;;;;;;23.13;18.33;;;;;;;;;;5056035;28;20025;-69
2022/08/22 08:45:38;;;;;;;22.52;17.70;;;;;;;;;;5055338;28;20063;-69
2022/08/22 08:48:16;;;;;;;20.00;16.25;;;;;;;;;;5055347;28;20033;-69
2022/08/22 08:50:42;;;;;;;22.27;16.88;;;;;;;;;;5055066;28;20032;-69
2022/08/22 08:53:26;;;;;;;20.65;17.00;;;;;;;;;;5020800;28;20052;-69
2022/08/22 08:55:55;;;;;;;20.08;16.67;;;;;;;;;;5055437;28;20514;-69
2022/08/22 08:58:26;;;;;;;23.38;18.17;;;;;;;;;;5055159;28;20452;-69
2022/08/22 09:01:12;;;;;;;20.75;16.48;;;;;;;;;;5055056;28;20033;-69
2022/08/22 09:03:56;;;;;;;17.15;14.93;;;;;;;;;;5054233;28;20037;-69
2022/08/22 09:06:40;;;;;;;21.27;17.23;;;;;;;;;;5055078;28;20111;-69
2022/08/22 09:09:14;;;;;;;20.70;16.83;;;;;;;;;;5054735;28;20032;-70
2022/08/22 09:11:49;;;;;;;22.35;16.70;;;;;;;;;;5054208;28;20029;-69
2022/08/22 09:14:21;;;;;;;18.00;16.00;;;;;;;;;;5053809;28;20037;-69
2022/08/22 09:17:10;;;;;;;19.08;16.20;;;;;;;;;;5053644;28;20095;-69
2022/08/22 09:19:54;;;;;;;18.83;15.90;;;;;;;;;;5040430;28;20041;-69
2022/08/22 09:22:19;;;;;;;18.67;15.57;;;;;;;;;;5053665;28;20044;-70
2022/08/22 09:24:54;;;;;;;20.83;15.73;;;;;;;;;;5053605;28;20021;-70
2022/08/22 09:27:34;;;;;;;16.45;14.15;;;;;;;;;;5053583;28;20036;-70
2022/08/22 09:30:08;;;;;;;16.08;14.00;;;;;;;;;;5053538;28;20033;-70
2022/08/22 09:32:34;;;;;;;18.70;14.70;;;;;;;;;;5053457;28;20048;-70
2022/08/22 09:35:02;;;;;;;16.35;14.65;;;;;;;;;;5053376;28;20029;-70
2022/08/22 09:37:33;;;;;;;15.48;13.48;;;;;;;;;;5053305;28;20091;-70
2022/08/22 09:39:59;;;;;;;21.20;13.80;;;;;;;;;;5053216;28;20029;-70
2022/08/22 09:42:43;;;;;;;16.50;13.98;;;;;;;;;;5035362;28;20021;-70
2022/08/22 09:45:26;;;;;;;14.15;11.57;;;;;;;;;;5053214;28;20020;-70
2022/08/22 09:48:08;;;;;;;11.70;10.02;;;;;;;;;;5053150;28;20035;-70
2022/08/22 09:50:33;;;;;;;15.25;13.50;;;;;;;;;;5035433;28;20434;-70
2022/08/22 09:53:08;;;;;;;22.70;16.40;;;;;;;;;;5053007;28;20045;-70
2022/08/22 09:55:47;;;;;;;15.63;13.25;;;;;;;;;;5035105;28;20029;-70
2022/08/22 09:58:39;;;;;;;19.33;14.20;;;;;;;;;;5053061;28;20036;-70
2022/08/22 10:01:14;;;;;;;13.45;12.10;;;;;;;;;;5014544;28;20069;-70
2022/08/22 10:03:58;;;;;;;11.73;9.52;;;;;;;;;;5052929;28;20028;-70
2022/08/22 10:06:26;;;;;;;11.13;9.70;;;;;;;;;;5052870;28;20028;-70
2022/08/22 10:09:03;;;;;;;14.23;12.30;;;;;;;;;;5052792;28;20044;-70
2022/08/22 10:11:32;;;;;;;13.40;11.77;;;;;;;;;;5052771;28;20025;-70
2022/08/22 10:14:03;;;;;;;12.27;10.98;;;;;;;;;;5052771;28;20013;-71
2022/08/22 10:16:35;;;;;;;13.10;11.77;;;;;;;;;;5034778;28;20467;-71
2022/08/22 10:19:12;;;;;;;12.73;9.82;;;;;;;;;;5034808;28;20021;-71
2022/08/22 10:21:38;;;;;;;12.77;11.05;;;;;;;;;;5052605;28;20025;-71
2022/08/22 10:24:12;;;;;;;13.23;8.82;;;;;;;;;;5034785;28;20017;-71
2022/08/22 10:26:43;;;;;;;11.35;9.00;;;;;;;;;;5052567;28;20029;-71
2022/08/22 10:29:28;;;;;;;14.82;13.23;;;;;;;;;;5052541;28;20032;-71
2022/08/22 10:31:58;;;;;;;16.88;13.38;;;;;;;;;;5052508;28;20533;-71
2022/08/22 10:34:31;;;;;;;16.58;13.40;;;;;;;;;;5052464;28;20040;-71
2022/08/22 10:37:03;;;;;;;15.70;12.30;;;;;;;;;;5052395;28;20467;-71
2022/08/22 10:39:41;;;;;;;17.85;13.27;;;;;;;;;;5052477;28;20021;-71
2022/08/22 10:42:10;;;;;;;14.35;12.60;;;;;;;;;;5052343;28;20422;-71
2022/08/22 10:44:39;;;;;;;13.77;12.05;;;;;;;;;;5052455;28;20049;-71
2022/08/22 10:47:07;;;;;;;16.77;13.48;;;;;;;;;;5052432;28;20036;-71
2022/08/22 10:49:35;;;;;;;11.38;9.65;;;;;;;;;;5034547;28;20021;-71
2022/08/22 10:52:05;;;;;;;14.90;11.18;;;;;;;;;;5034381;28;20128;-71
2022/08/22 10:54:33;;;;;;;9.83;8.83;;;;;;;;;;5052562;28;20112;-63
2022/08/22 10:57:14;;;;;;;14.90;11.43;;;;;;;;;;5052646;28;20025;-71
2022/08/22 10:59:59;;;;;;;16.08;13.27;;;;;;;;;;5018189;28;20032;-71
2022/08/22 11:02:28;;;;;;;11.00;9.82;;;;;;;;;;5034399;28;20082;-72
2022/08/22 11:05:12;;;;;;;13.07;10.95;;;;;;;;;;5034622;28;20112;-72
2022/08/22 11:07:43;;;;;;;14.85;13.15;;;;;;;;;;5052158;28;20037;-72
2022/08/22 11:10:28;;;;;;;14.32;11.93;;;;;;;;;;5052124;28;20021;-71
2022/08/22 11:13:02;;;;;;;12.80;10.05;;;;;;;;;;5035910;28;20494;-71
2022/08/22 11:15:46;;;;;;;13.43;10.90;;;;;;;;;;5038061;28;20041;-72
2022/08/22 11:18:13;;;;;;;15.55;12.57;;;;;;;;;;5056081;28;20025;-71
2022/08/22 11:20:41;;;;;;;14.63;12.50;;;;;;;;;;5038073;28;20028;-72
2022/08/22 11:23:19;;;;;;;16.58;12.43;;;;;;;;;;5038181;28;20111;-72
2022/08/22 11:25:47;;;;;;;11.30;10.13;;;;;;;;;;5038102;28;20040;-72
2022/08/22 11:28:28;;;;;;;11.75;10.55;;;;;;;;;;5056127;28;20033;-72
2022/08/22 11:31:06;;;;;;;13.05;11.48;;;;;;;;;;5056051;28;20029;-72
2022/08/22 11:33:37;;;;;;;11.18;10.10;;;;;;;;;;5055657;28;20391;-72
2022/08/22 11:36:07;;;;;;;16.25;12.77;;;;;;;;;;5055547;28;20036;-72
2022/08/22 11:38:44;;;;;;;14.70;13.18;;;;;;;;;;5037744;28;20021;-71
2022/08/22 11:41:17;;;;;;;15.10;12.18;;;;;;;;;;5055587;28;20025;-71
2022/08/22 11:44:04;;;;;;;16.25;12.80;;;;;;;;;;5055814;28;20063;-71
2022/08/22 11:46:44;;;;;;;15.15;13.07;;;;;;;;;;5055428;28;20493;-71
2022/08/22 11:49:28;;;;;;;15.70;12.80;;;;;;;;;;5055491;28;20036;-72
2022/08/22 11:51:56;;;;;;;14.43;12.93;;;;;;;;;;5055217;28;20056;-71
2022/08/22 11:54:40;;;;;;;11.52;9.98;;;;;;;;;;5055382;28;20430;-72
2022/08/22 11:57:08;;;;;;;12.00;10.70;;;;;;;;;;5055199;28;20029;-70
2022/08/22 11:59:52;;;;;;;10.68;9.55;;;;;;;;;;5055221;28;20464;-72
2022/08/22 12:02:20;;;;;;;12.63;11.32;;;;;;;;;;5055140;28;20056;-72
2022/08/22 12:04:57;;;;;;;11.05;9.95;;;;;;;;;;5037340;28;20017;-72
2022/08/22 12:07:28;;;;;;;12.88;9.55;;;;;;;;;;5055064;28;20044;-72
2022/08/22 12:09:58;;;;;;;13.23;9.70;;;;;;;;;;5055548;28;20032;-72
2022/08/22 17:37:48;;;;;;;4.72;4.40;;;;;;;;;;4996974;23;20458;-63
2022/08/22 17:40:16;;;;;;;4.80;4.20;;;;;;;;;;4988411;28;20045;-63
2022/08/22 17:43:02;;;;;;;5.88;4.63;;;;;;;;;;4988583;28;20026;-63
2022/08/22 17:45:37;;;;;;;5.20;4.75;;;;;;;;;;4988658;28;20038;-63
2022/08/22 17:48:07;;;;;;;5.32;4.45;;;;;;;;;;4989129;28;20724;-63
2022/08/22 17:50:33;;;;;;;;;;;;;;;;;;4989451;28;20038;-63
2022/08/22 17:53:04;;;;;;;5.20;4.70;;;;;;;;;;4988634;28;19910;-63
2022/08/22 17:55:33;;;;;;;5.60;5.10;;;;;;;;;;4988393;28;20030;-63
2022/08/22 17:57:58;;;;;;;5.97;5.30;;;;;;;;;;4987505;28;20517;-63
2022/08/22 18:00:29;;;;;;;7.78;5.80;;;;;;;;;;4989328;28;20569;-63
2022/08/22 18:03:13;;;;;;;5.93;5.32;;;;;;;;;;4989542;28;20448;-63
2022/08/22 18:05:51;;;;;;;5.35;4.85;;;;;;;;;;4989295;28;20041;-63
2022/08/22 18:08:35;;;;;;;6.05;5.50;;;;;;;;;;4989048;28;20026;-63
2022/08/22 18:11:21;;;;;;;6.15;5.57;;;;;;;;;;4989189;28;20062;-63
2022/08/22 18:13:56;;;;;;;5.40;4.90;;;;;;;;;;4988255;28;20046;-63
2022/08/22 18:16:41;;;;;;;7.50;5.18;;;;;;;;;;4987639;28;20034;-63
2022/08/22 18:19:12;;;;;;;7.38;5.35;;;;;;;;;;4989099;28;20038;-63
2022/08/22 18:21:37;;;;;;;6.28;5.68;;;;;;;;;;4988852;28;20473;-63
2022/08/22 18:24:09;;;;;;;9.00;5.95;;;;;;;;;;4988672;28;20053;-63
2022/08/22 18:26:37;;;;;;;8.20;6.38;;;;;;;;;;4988357;28;20037;-64
2022/08/22 18:29:05;;;;;;;17.35;12.80;;;;;;;;;;4987268;28;20033;-63
2022/08/22 18:31:34;;;;;;;24.73;11.57;;;;;;;;;;4986992;28;20073;-63
2022/08/22 18:34:05;;;;;;;18.45;10.55;;;;;;;;;;4988768;28;20105;-63
2022/08/22 18:36:33;;;;;;;24.33;10.93;;;;;;;;;;4978695;28;20051;-63
2022/08/22 18:39:09;;;;;;;10.48;7.40;;;;;;;;;;4967638;28;20097;-63
2022/08/22 18:41:56;;;;;;;9.40;7.55;;;;;;;;;;4968865;28;20033;-63
2022/08/22 18:44:29;;;;;;;8.80;6.32;;;;;;;;;;4969371;28;20035;-64
2022/08/22 18:46:56;;;;;;;18.33;10.05;;;;;;;;;;4968720;28;20089;-63
2022/08/22 18:49:22;;;;;;;13.18;9.07;;;;;;;;;;4969008;28;20027;-64
2022/08/22 18:52:06;;;;;;;6.88;6.20;;;;;;;;;;4969021;28;20068;-64
2022/08/22 18:54:32;;;;;;;7.07;6.35;;;;;;;;;;4968720;28;20038;-64
2022/08/22 18:57:00;;;;;;;7.47;6.80;;;;;;;;;;4968773;28;20027;-64
2022/08/22 18:59:45;;;;;;;7.03;5.88;;;;;;;;;;4967556;28;20405;-64
2022/08/22 19:02:29;;;;;;;12.15;7.10;;;;;;;;;;4969093;28;20698;-64
2022/08/22 19:04:58;;;;;;;10.88;6.30;;;;;;;;;;4968731;28;20027;-63
2022/08/22 19:07:23;;;;;;;7.80;6.97;;;;;;;;;;4968720;28;20035;-64
2022/08/22 19:09:56;;;;;;;10.43;7.20;;;;;;;;;;4968888;28;20118;-57
2022/08/22 19:12:30;;;;;;;7.68;6.40;;;;;;;;;;4968948;28;20038;-58
2022/08/22 19:15:03;;;;;;;7.28;5.68;;;;;;;;;;4969248;28;20054;-58
2022/08/22 19:17:38;;;;;;;6.13;5.55;;;;;;;;;;4968862;28;20389;-58
2022/08/22 19:23:14;;;;;;;8.35;6.38;;;;;;;;;;4968894;28;20666;-63
2022/08/22 19:26:01;;;;;;;8.63;6.32;;;;;;;;;;4968388;28;20109;-63
2022/08/22 19:28:34;;;;;;;7.32;5.75;;;;;;;;;;4967464;28;20073;-63
2022/08/22 19:31:21;;;;;;;6.40;5.80;;;;;;;;;;4967702;28;20508;-63
2022/08/22 19:34:07;;;;;;;6.40;5.82;;;;;;;;;;4968906;28;20072;-63
2022/08/22 19:36:33;;;;;;;10.10;6.25;;;;;;;;;;4969993;28;20137;-62
2022/08/22 19:39:06;;;;;;;6.40;5.90;;;;;;;;;;4972811;28;20110;-63
2022/08/22 19:41:58;;;;;;;6.03;5.50;;;;;;;;;;4972376;28;20541;-63
2022/08/22 19:44:26;;;;;;;6.72;6.07;;;;;;;;;;4967742;28;20098;-63
2022/08/22 19:47:07;;;;;;;7.20;6.60;;;;;;;;;;4954597;28;20026;-63
2022/08/22 19:49:38;;;;;;;7.13;5.85;;;;;;;;;;4972259;28;20038;-66
2022/08/22 19:52:13;;;;;;;8.18;6.63;;;;;;;;;;4970756;28;20537;-65
2022/08/22 19:55:01;;;;;;;11.27;7.25;;;;;;;;;;4972672;28;20432;-65
2022/08/22 19:57:40;;;;;;;9.75;6.47;;;;;;;;;;4973145;28;20095;-66
2022/08/22 20:00:20;;;;;;;7.38;6.53;;;;;;;;;;4973365;28;20031;-63
2022/08/22 20:03:02;;;;;;;8.43;6.65;;;;;;;;;;4973338;28;20389;-63
2022/08/22 20:05:36;;;;;;;6.90;6.30;;;;;;;;;;4972984;28;20038;-66
2022/08/22 20:08:14;;;;;;;8.25;7.10;;;;;;;;;;4972907;28;20077;-65
2022/08/22 20:10:55;;;;;;;8.05;7.25;;;;;;;;;;4971763;28;20119;-65
2022/08/22 20:13:25;;;;;;;8.35;7.55;;;;;;;;;;4973014;28;20400;-63
2022/08/22 20:16:12;;;;;;;9.65;7.18;;;;;;;;;;4974973;28;20074;-63
2022/08/22 20:18:56;;;;;;;9.57;7.25;;;;;;;;;;4973664;28;20452;-68
2022/08/22 20:21:40;;;;;;;10.32;6.85;;;;;;;;;;4975235;28;20085;-68
2022/08/22 20:24:07;;;;;;;10.93;7.47;;;;;;;;;;4975021;28;20046;-66
2022/08/22 20:26:35;;;;;;;10.80;7.45;;;;;;;;;;4976983;28;20026;-66
2022/08/22 20:29:03;;;;;;;8.85;7.40;;;;;;;;;;4976652;28;20034;-65
2022/08/22 20:31:32;;;;;;;8.48;7.50;;;;;;;;;;4977106;28;20019;-64
2022/08/22 20:33:59;;;;;;;7.97;7.18;;;;;;;;;;4977215;28;20034;-64
2022/08/22 20:36:24;;;;;;;9.85;7.00;;;;;;;;;;4974851;28;20038;-64
2022/08/22 20:38:52;;;;;;;6.95;6.30;;;;;;;;;;4975066;28;20126;-64